Fédération internationale de Ski
Member Section
Print

OFFICIAL RESULTS

Hemsedal (NOR) 13.12.2016

FIS - Ladies' FIS OFFICIAL RESULTS

Race codex : 5908
Valid for FIS Points : YES
1 files available



Jury
TD FIS WEISS CHRISTER SWE
Referee Eivind Oestengen NOR
Assistant Referee Andreas Kollenborg NOR
Chief of Race Trym Klingenberg NOR
Technical Data
Start Altitude 1280 m.
Finish Altitude 690 m.
Vertical Drop 590 m.
Course Length 0 m.
Homologation Number 12199/11/16
Run 1
Course Setter Oeystein Bakken NOR
Number of Gates 33
Start Time 1700
 
Show more info»

Competitors

Rank Bib FIS Code Name Year Nation Total Time Diff. FIS Points
 1  4  506867 HAAKANSSON FERMBAECK Elsa  1998  SWE   1:04.98     32.16
 2  9  155503 KLICNAROVA Pavla  1988  CZE   1:05.32  +0.34  37.81
 3  11  555036 ABOLTINA Agnese  1996  LAT   1:05.60  +0.62  42.46
 4  2  426248 EDSETH Marte Berg  1998  NOR   1:05.70  +0.72  44.13
 5  1  506860 LUTHMAN Jonna  1998  SWE   1:05.80  +0.82  45.79
 6  20  506890 AXELSSON Fanny  1998  SWE   1:05.81  +0.83  45.96
 7  15  426273 SAETHERENG Hannah  1999  NOR   1:05.88  +0.90  47.12
 8  6  426236 BEKKESTAD Kristiane  1998  NOR   1:05.94  +0.96  48.12
 9  30  506903 STRANDBERG Ebba  1998  SWE   1:05.97  +0.99  48.61
 10  22  435404 KRAJEWSKA Daria  1998  POL   1:06.06  +1.08  50.11
 11  8  426262 SELVAAG Josefine  1998  NOR   1:06.08  +1.10  50.44
 12  3  705436 KAMENICKA Daniela  1996  SVK   1:06.12  +1.14  51.11
 13  99  426324 MONSEN Marte  2000  NOR   1:06.21  +1.23  52.60
 14  36  705462 MORAVCIKOVA Sona  1999  SVK   1:06.23  +1.25  52.94
 15  5  426250 SANDERBERG Fanny Cathrine  1998  NOR   1:06.42  +1.44  56.09
 16  44  506822 LIFVENDAHL Lisa  1997  SWE   1:06.54  +1.56  58.09
 17  56  185411 LUUKKO Nea  1996  FIN   1:06.67  +1.69  60.25
 18  33  705460 JANCOVA Tereza  1999  SVK   1:06.72  +1.74  61.08
 19  23  155586 KMOCHOVA Tereza  1990  CZE   1:06.74  +1.76  61.41
 20  13  426254 HAMNES Ingrid  1998  NOR   1:06.77  +1.79  61.91
 21  31  506965 HENNING Emelie  1999  SWE   1:06.89  +1.91  63.91
 22  26  506718 IVARSSON Lin  1996  SWE   1:07.29  +2.31  70.55
 23  42  426298 OVERAAS Frida  1999  NOR   1:07.35  +2.37  71.55
 24  55  506966 FREDRICSSON Evelina  1999  SWE   1:07.52  +2.54  74.38
 24  19  426285 MAARSTOEL Andrine  1999  NOR   1:07.52  +2.54  74.38
 26  96  705469 NEMCOVA Klaudia  2000  SVK   1:07.62  +2.64  76.04
 27  50  496222 LOPEZ Clara  1996  ESP   1:07.70  +2.72  77.37
 28  98  405172 BAKKE Bianca  2000  NED   1:07.76  +2.78  78.36
 29  35  426252 GRIMSRUD Juliane  1998  NOR   1:07.77  +2.79  78.53
 29  27  426261 SANDEGGEN Saga  1998  NOR   1:07.77  +2.79  78.53
 31  39  665009 SHKANOVA Maria  1989  BLR   1:07.89  +2.91  80.53
 31  18  426251 GRIMSRUD Tiril  1998  NOR   1:07.89  +2.91  80.53
 33  43  506874 KERVEN Michelle  1998  SWE   1:07.97  +2.99  81.86
 34  84  25210 MORENO BECERRA Cande  2000  AND   1:08.00  +3.02  82.35
 34  28  426272 NYBERG Martine Fosmo  1999  NOR   1:08.00  +3.02  82.35
 36  34  426200 ANDERSEN Saskia  1997  NOR   1:08.01  +3.03  82.52
 37  92  506996 CLEMENTSON Moa  2000  SWE   1:08.03  +3.05  82.85
 38  21  435371 WASEK Katarzyna  1996  POL   1:08.06  +3.08  83.35
 39  101  426327 KRISTOFFERSEN Helene  2000  NOR   1:08.11  +3.13  84.18
 40  49  426276 KINNEBERG Birgit  1999  NOR   1:08.23  +3.25  86.18
 41  46  555018 GASUNA Lelde  1990  LAT   1:08.27  +3.29  86.84
 42  41  506882 BROWALDH Siri  1998  SWE   1:08.30  +3.32  87.34
 43  37  426301 HORGEN Catharina Astrup  1999  NOR   1:08.50  +3.52  90.66
 44  47  6535771 NAWROCKI Rachel  1997  USA   1:08.52  +3.54  91.00
 45  71  426247 STAVSETH Veslemoey Kihle  1998  NOR   1:08.60  +3.62  92.33
 46  95  426311 FALKSETE Ylva Tone  2000  NOR   1:08.66  +3.68  93.32
 47  38  426243 ROEYNSTRAND Elise  1998  NOR   1:08.71  +3.73  94.15
 48  52  6535762 LORD Madison  1997  USA   1:08.80  +3.82  95.65
 49  48  435414 KALUZA Martyna  1999  POL   1:08.86  +3.88  96.65
 50  80  275038 RYAN Emma  2000  IRL   1:08.93  +3.95  97.81
 51  94  426299 VARNE Bergitte  1999  NOR   1:09.04  +4.06  99.64
 52  58  426291 ROEYNSTRAND Anniken  1999  NOR   1:09.07  +4.09  100.14
 53  59  6536167 GILLIS Sarah  1999  USA   1:09.09  +4.11  100.47
 54  45  695101 TIKUN Tetyana  1994  UKR   1:09.13  +4.15  101.14
 55  90  426309 STAVSETH Emma Kihle  2000  NOR   1:09.23  +4.25  102.80
 56  97  426318 TELJE Elise  2000  NOR   1:09.37  +4.39  105.12
 57  82  426326 MOLTZAU Serine  2000  NOR   1:09.69  +4.71  110.44
 58  57  695108 KNYSH Olha  1995  UKR   1:09.86  +4.88  113.27
 59  61  25207 MIJARES RUF Claudia  1999  AND   1:09.87  +4.89  113.43
 60  53  175056 BROENS Ida Sofie Bunsov  1999  DEN   1:10.18  +5.20  118.59
 61  63  506883 JANSSON Martina  1998  SWE   1:10.32  +5.34  120.91
 62  88  426328 RYGH Jenny  2000  NOR   1:10.47  +5.49  123.41
 63  100  415227 GILLARD Amelia  2000  NZL   1:10.55  +5.57  124.74
 64  68  426270 BERGE Ylva  1999  NOR   1:10.57  +5.59  125.07
 65  40  506955 SIGURDSSON Linn  1999  SWE   1:10.81  +5.83  129.06
 66  83  6536435 ANTONIOLI Ruby  2000  USA   1:10.86  +5.88  129.89
 67  65  426305 ROSTADSAND Synne Johanne Eikeland  1999  NOR   1:11.11  +6.13  134.04
 68  85  426281 AANDAL Marthe Toesse  1999  NOR   1:11.12  +6.14  134.21
 69  87  405170 DIRKSEN Kaya  2000  NED   1:11.41  +6.43  139.03
 70  77  507008 LINDBERG Vera  2000  SWE   1:11.51  +6.53  140.69
 71  51  426274 HERDLEVAER Marie Bartnes  1999  NOR   1:11.54  +6.56  141.19
 72  76  426319 MILLANG Maria  2000  NOR   1:11.70  +6.72  143.85
 73  74  705435 HREHOROVA Evelyn  1996  SVK   1:12.12  +7.14  150.83
 74  78  175055 LARSEN Emilie  1999  DEN   1:12.33  +7.35  154.32
 75  54  426260 RYGH Johanne  1998  NOR   1:12.51  +7.53  157.31
 76  91  506990 ALENIUS Tova  2000  SWE   1:12.87  +7.89  163.30
 77  86  426310 NORD Mia  2000  NOR   1:13.17  +8.19  168.28
 78  89  308018 NAKACHI Maya Simkowitz  2000  JPN   1:13.23  +8.25  169.28
 79  73  395022 JOGEVA Anna Lotta  1999  EST   1:13.27  +8.29  169.94
 80  93  6536517 NYQUIST Hanna  2000  USA   1:13.54  +8.56  174.43
 81  81  426308 KOJEN Aurora  2000  NOR   1:14.05  +9.07  182.91
 82  70  506954 SANDBERG Clara  1999  SWE   1:14.99  +10.01  198.53
 83  79  426322 BREKKAN Johanne  2000  NOR   1:15.26  +10.28  203.02
 84  72  426275 EGGAR Katrine Groth  1999  NOR   1:16.89  +11.91  230.11
Did not finish 1st run
   102  6536383 TRUDEAU Hannah  2000  USA       
   69  25206 CINCA BONS Aina  1999  AND       
   67  555035 BONDARE Liene  1996  LAT       
   66  426277 LARSEN Andrea Skaaland  1999  NOR       
   64  426278 RABO Mina Sofie  1999  NOR       
   62  25201 RAMENTOL ALMEIDA Mariona  1998  AND       
   60  426259 NAESS Martine  1998  NOR       
   32  25188 RAMENTOL Sara  1996  AND       
   29  426293 KUFAAS Mariel  1999  NOR       
   25  426265 SOEFTELAND Helena Hoerte  1998  NOR       
   24  185447 KORPIO Nella  1999  FIN       
   17  426131 ENGESET Eirin Linnea  1995  NOR       
   10  426304 RESEN Henriette  1999  NOR       
   7  25194 PALLAS Carmina  1996  AND       
Did not start 1st run
   103  426325 MELBYE Karen Tjelta  2000  NOR       
   75  426188 RUSTA Fiona  1996  NOR       
   16  155605 KLOUCKOVA Karolina  1990  CZE       
   14  426286 OLSEN Bertine Aam  1999  NOR       
   12  506915 DAHLIN Agnes  1999  SWE